Terminal Aerodrome Forecast
Issued by NWS Cleveland, OH

Home | Current Version | Previous Version | Text Only | Print | Product List | Glossary On
Versions: 1 2 3 4 5 6 7 8 9 10 11 12 13 14 15 16 17 18 19 20
000
FTUS41 KCLE 262338
TAFMFD
TAF
KMFD 262338Z 2700/2724 20010G20KT 6SM -SHRA OVC050
      TEMPO 2700/2701 22020G35KT 2SM TSRA OVC035CB
     FM271000 20008KT 5SM BR SCT004
     FM271400 22012G22KT P6SM SCT015
     FM271600 22015G25KT P6SM BKN040
     FM271800 24015G25KT P6SM BKN050
      TEMPO 2721/2724 3SM -TSRA OVC035CB=

USA.gov is the U.S. government's official web portal to all federal, state and local government web resources and services.